sensor_id;sensor_type;location;lat;lon;timestamp;P1;durP1;ratioP1;P2;durP2;ratioP2
30970;SDS011;17651;52.262;10.498;2023-02-17T00:01:36;40.67;;;25.25;;
30970;SDS011;17651;52.262;10.498;2023-02-17T00:03:47;44.58;;;24.33;;
30970;SDS011;17651;52.262;10.498;2023-02-17T00:06:03;48.85;;;23.88;;
30970;SDS011;17651;52.262;10.498;2023-02-17T00:08:14;42.45;;;24.08;;
30970;SDS011;17651;52.262;10.498;2023-02-17T00:10:25;41.53;;;22.90;;
30970;SDS011;17651;52.262;10.498;2023-02-17T00:12:37;39.78;;;22.88;;
30970;SDS011;17651;52.262;10.498;2023-02-17T00:14:48;47.83;;;24.88;;
30970;SDS011;17651;52.262;10.498;2023-02-17T00:16:59;39.03;;;22.85;;
30970;SDS011;17651;52.262;10.498;2023-02-17T00:19:10;41.22;;;23.00;;
30970;SDS011;17651;52.262;10.498;2023-02-17T00:21:34;41.15;;;22.88;;
30970;SDS011;17651;52.262;10.498;2023-02-17T00:23:45;41.28;;;21.30;;
30970;SDS011;17651;52.262;10.498;2023-02-17T00:25:56;41.60;;;22.90;;
30970;SDS011;17651;52.262;10.498;2023-02-17T00:28:07;41.78;;;23.98;;
30970;SDS011;17651;52.262;10.498;2023-02-17T00:30:18;40.67;;;22.92;;
30970;SDS011;17651;52.262;10.498;2023-02-17T00:32:30;35.55;;;21.92;;
30970;SDS011;17651;52.262;10.498;2023-02-17T00:34:41;40.15;;;23.00;;
30970;SDS011;17651;52.262;10.498;2023-02-17T00:36:52;41.83;;;23.00;;
30970;SDS011;17651;52.262;10.498;2023-02-17T00:39:03;40.58;;;21.95;;
30970;SDS011;17651;52.262;10.498;2023-02-17T00:41:15;39.25;;;22.27;;
30970;SDS011;17651;52.262;10.498;2023-02-17T00:43:26;40.67;;;22.52;;
30970;SDS011;17651;52.262;10.498;2023-02-17T00:45:37;45.28;;;22.55;;
30970;SDS011;17651;52.262;10.498;2023-02-17T00:47:48;39.95;;;21.50;;
30970;SDS011;17651;52.262;10.498;2023-02-17T00:50:00;41.22;;;23.77;;
30970;SDS011;17651;52.262;10.498;2023-02-17T00:52:11;42.28;;;23.65;;
30970;SDS011;17651;52.262;10.498;2023-02-17T00:54:22;37.92;;;22.88;;
30970;SDS011;17651;52.262;10.498;2023-02-17T00:56:33;38.28;;;21.58;;
30970;SDS011;17651;52.262;10.498;2023-02-17T00:58:46;40.28;;;22.27;;
30970;SDS011;17651;52.262;10.498;2023-02-17T01:00:57;42.88;;;23.35;;
30970;SDS011;17651;52.262;10.498;2023-02-17T01:03:09;42.42;;;23.95;;
30970;SDS011;17651;52.262;10.498;2023-02-17T01:05:20;38.75;;;24.08;;
30970;SDS011;17651;52.262;10.498;2023-02-17T01:07:31;40.00;;;20.23;;
30970;SDS011;17651;52.262;10.498;2023-02-17T01:09:42;36.53;;;21.92;;
30970;SDS011;17651;52.262;10.498;2023-02-17T01:11:53;40.10;;;22.05;;
30970;SDS011;17651;52.262;10.498;2023-02-17T01:14:04;38.28;;;21.17;;
30970;SDS011;17651;52.262;10.498;2023-02-17T01:16:16;35.78;;;21.67;;
30970;SDS011;17651;52.262;10.498;2023-02-17T01:18:28;37.15;;;21.73;;
30970;SDS011;17651;52.262;10.498;2023-02-17T01:20:39;37.25;;;21.08;;
30970;SDS011;17651;52.262;10.498;2023-02-17T01:22:51;36.17;;;20.75;;
30970;SDS011;17651;52.262;10.498;2023-02-17T01:25:02;37.03;;;20.10;;
30970;SDS011;17651;52.262;10.498;2023-02-17T01:27:13;37.83;;;21.58;;
30970;SDS011;17651;52.262;10.498;2023-02-17T01:29:24;40.55;;;22.20;;
30970;SDS011;17651;52.262;10.498;2023-02-17T01:31:35;36.22;;;20.58;;
30970;SDS011;17651;52.262;10.498;2023-02-17T01:33:46;39.97;;;22.42;;
30970;SDS011;17651;52.262;10.498;2023-02-17T01:36:00;36.28;;;21.58;;
30970;SDS011;17651;52.262;10.498;2023-02-17T01:38:12;36.83;;;19.92;;
30970;SDS011;17651;52.262;10.498;2023-02-17T01:40:23;42.60;;;22.08;;
30970;SDS011;17651;52.262;10.498;2023-02-17T01:42:34;40.75;;;21.67;;
30970;SDS011;17651;52.262;10.498;2023-02-17T01:47:15;32.70;;;18.90;;
30970;SDS011;17651;52.262;10.498;2023-02-17T01:49:36;33.90;;;18.75;;
30970;SDS011;17651;52.262;10.498;2023-02-17T01:51:49;35.72;;;20.17;;
30970;SDS011;17651;52.262;10.498;2023-02-17T01:54:08;34.28;;;19.23;;
30970;SDS011;17651;52.262;10.498;2023-02-17T01:56:21;33.20;;;19.15;;
30970;SDS011;17651;52.262;10.498;2023-02-17T01:58:34;35.33;;;19.90;;
30970;SDS011;17651;52.262;10.498;2023-02-17T02:00:47;33.55;;;19.92;;
30970;SDS011;17651;52.262;10.498;2023-02-17T02:02:58;31.48;;;18.52;;
30970;SDS011;17651;52.262;10.498;2023-02-17T02:05:11;30.65;;;19.20;;
30970;SDS011;17651;52.262;10.498;2023-02-17T02:07:24;27.02;;;17.73;;
30970;SDS011;17651;52.262;10.498;2023-02-17T02:09:37;33.97;;;19.45;;
30970;SDS011;17651;52.262;10.498;2023-02-17T02:11:49;39.30;;;20.27;;
30970;SDS011;17651;52.262;10.498;2023-02-17T02:14:01;32.50;;;18.63;;
30970;SDS011;17651;52.262;10.498;2023-02-17T02:18:49;27.42;;;16.85;;
30970;SDS011;17651;52.262;10.498;2023-02-17T02:23:44;31.88;;;18.45;;
30970;SDS011;17651;52.262;10.498;2023-02-17T02:30:53;29.83;;;17.42;;
30970;SDS011;17651;52.262;10.498;2023-02-17T02:33:13;30.75;;;18.95;;
30970;SDS011;17651;52.262;10.498;2023-02-17T02:40:18;32.50;;;19.67;;
30970;SDS011;17651;52.262;10.498;2023-02-17T02:42:32;32.65;;;20.55;;
30970;SDS011;17651;52.262;10.498;2023-02-17T02:44:44;32.60;;;20.08;;
30970;SDS011;17651;52.262;10.498;2023-02-17T02:49:07;30.77;;;18.27;;
30970;SDS011;17651;52.262;10.498;2023-02-17T02:51:26;33.92;;;18.85;;
30970;SDS011;17651;52.262;10.498;2023-02-17T02:56:10;31.92;;;19.50;;
30970;SDS011;17651;52.262;10.498;2023-02-17T02:58:30;31.00;;;17.50;;
30970;SDS011;17651;52.262;10.498;2023-02-17T03:00:53;32.00;;;18.60;;
30970;SDS011;17651;52.262;10.498;2023-02-17T03:03:07;29.30;;;16.80;;
30970;SDS011;17651;52.262;10.498;2023-02-17T03:10:03;28.73;;;17.77;;
30970;SDS011;17651;52.262;10.498;2023-02-17T03:12:15;28.17;;;17.40;;
30970;SDS011;17651;52.262;10.498;2023-02-17T03:14:26;30.90;;;17.13;;
30970;SDS011;17651;52.262;10.498;2023-02-17T03:16:38;29.40;;;17.48;;
30970;SDS011;17651;52.262;10.498;2023-02-17T03:18:50;26.77;;;16.90;;
30970;SDS011;17651;52.262;10.498;2023-02-17T03:21:04;26.88;;;17.23;;
30970;SDS011;17651;52.262;10.498;2023-02-17T03:23:16;28.27;;;17.08;;
30970;SDS011;17651;52.262;10.498;2023-02-17T03:25:27;24.35;;;15.93;;
30970;SDS011;17651;52.262;10.498;2023-02-17T03:27:38;28.70;;;17.48;;
30970;SDS011;17651;52.262;10.498;2023-02-17T03:29:49;29.85;;;17.38;;
30970;SDS011;17651;52.262;10.498;2023-02-17T03:32:02;30.27;;;17.73;;
30970;SDS011;17651;52.262;10.498;2023-02-17T03:34:13;27.58;;;17.50;;
30970;SDS011;17651;52.262;10.498;2023-02-17T03:36:24;24.75;;;15.52;;
30970;SDS011;17651;52.262;10.498;2023-02-17T03:38:36;25.58;;;15.93;;
30970;SDS011;17651;52.262;10.498;2023-02-17T03:40:47;26.67;;;17.25;;
30970;SDS011;17651;52.262;10.498;2023-02-17T03:42:58;26.35;;;16.92;;
30970;SDS011;17651;52.262;10.498;2023-02-17T03:45:09;22.27;;;15.57;;
30970;SDS011;17651;52.262;10.498;2023-02-17T03:47:20;30.45;;;16.33;;
30970;SDS011;17651;52.262;10.498;2023-02-17T03:49:31;30.65;;;17.23;;
30970;SDS011;17651;52.262;10.498;2023-02-17T03:51:42;25.70;;;16.58;;
30970;SDS011;17651;52.262;10.498;2023-02-17T03:53:53;24.63;;;16.45;;
30970;SDS011;17651;52.262;10.498;2023-02-17T03:56:04;27.40;;;16.52;;
30970;SDS011;17651;52.262;10.498;2023-02-17T03:58:16;24.15;;;15.65;;
30970;SDS011;17651;52.262;10.498;2023-02-17T04:00:27;25.38;;;17.70;;
30970;SDS011;17651;52.262;10.498;2023-02-17T04:02:38;24.90;;;17.38;;
30970;SDS011;17651;52.262;10.498;2023-02-17T04:04:49;23.02;;;15.68;;
30970;SDS011;17651;52.262;10.498;2023-02-17T04:07:00;23.52;;;15.77;;
30970;SDS011;17651;52.262;10.498;2023-02-17T04:09:11;23.13;;;15.68;;
30970;SDS011;17651;52.262;10.498;2023-02-17T04:11:22;28.27;;;17.05;;
30970;SDS011;17651;52.262;10.498;2023-02-17T04:13:33;23.83;;;15.88;;
30970;SDS011;17651;52.262;10.498;2023-02-17T04:15:44;26.08;;;15.70;;
30970;SDS011;17651;52.262;10.498;2023-02-17T04:17:55;24.00;;;15.68;;
30970;SDS011;17651;52.262;10.498;2023-02-17T04:20:06;21.15;;;14.77;;
30970;SDS011;17651;52.262;10.498;2023-02-17T04:22:18;21.98;;;14.95;;
30970;SDS011;17651;52.262;10.498;2023-02-17T04:24:29;23.63;;;15.85;;
30970;SDS011;17651;52.262;10.498;2023-02-17T04:26:40;26.33;;;16.27;;
30970;SDS011;17651;52.262;10.498;2023-02-17T04:28:51;22.65;;;15.60;;
30970;SDS011;17651;52.262;10.498;2023-02-17T04:31:02;21.52;;;14.77;;
30970;SDS011;17651;52.262;10.498;2023-02-17T04:33:13;25.48;;;16.10;;
30970;SDS011;17651;52.262;10.498;2023-02-17T04:35:25;22.30;;;15.02;;
30970;SDS011;17651;52.262;10.498;2023-02-17T04:37:36;24.38;;;15.52;;
30970;SDS011;17651;52.262;10.498;2023-02-17T04:39:47;25.10;;;15.55;;
30970;SDS011;17651;52.262;10.498;2023-02-17T04:41:58;20.10;;;14.07;;
30970;SDS011;17651;52.262;10.498;2023-02-17T04:44:09;22.05;;;14.82;;
30970;SDS011;17651;52.262;10.498;2023-02-17T04:46:20;21.52;;;15.40;;
30970;SDS011;17651;52.262;10.498;2023-02-17T04:48:31;24.23;;;15.48;;
30970;SDS011;17651;52.262;10.498;2023-02-17T04:50:42;23.52;;;15.50;;
30970;SDS011;17651;52.262;10.498;2023-02-17T04:52:54;22.35;;;14.50;;
30970;SDS011;17651;52.262;10.498;2023-02-17T04:55:05;22.10;;;14.55;;
30970;SDS011;17651;52.262;10.498;2023-02-17T04:57:16;22.63;;;15.05;;
30970;SDS011;17651;52.262;10.498;2023-02-17T04:59:27;25.38;;;16.38;;
30970;SDS011;17651;52.262;10.498;2023-02-17T05:01:38;24.85;;;15.90;;
30970;SDS011;17651;52.262;10.498;2023-02-17T05:03:49;23.15;;;15.48;;
30970;SDS011;17651;52.262;10.498;2023-02-17T05:06:00;22.65;;;14.38;;
30970;SDS011;17651;52.262;10.498;2023-02-17T05:08:12;22.63;;;15.48;;
30970;SDS011;17651;52.262;10.498;2023-02-17T05:10:23;22.35;;;14.60;;
30970;SDS011;17651;52.262;10.498;2023-02-17T05:12:34;22.75;;;14.60;;
30970;SDS011;17651;52.262;10.498;2023-02-17T05:14:45;23.23;;;16.05;;
30970;SDS011;17651;52.262;10.498;2023-02-17T05:16:57;20.85;;;15.52;;
30970;SDS011;17651;52.262;10.498;2023-02-17T05:19:08;20.55;;;13.85;;
30970;SDS011;17651;52.262;10.498;2023-02-17T05:21:19;24.75;;;16.00;;
30970;SDS011;17651;52.262;10.498;2023-02-17T05:23:30;26.75;;;16.58;;
30970;SDS011;17651;52.262;10.498;2023-02-17T05:25:41;25.30;;;15.35;;
30970;SDS011;17651;52.262;10.498;2023-02-17T05:27:52;22.10;;;15.50;;
30970;SDS011;17651;52.262;10.498;2023-02-17T05:30:04;25.60;;;16.17;;
30970;SDS011;17651;52.262;10.498;2023-02-17T05:32:15;22.38;;;14.82;;
30970;SDS011;17651;52.262;10.498;2023-02-17T05:34:26;22.48;;;15.32;;
30970;SDS011;17651;52.262;10.498;2023-02-17T05:36:37;24.70;;;15.68;;
30970;SDS011;17651;52.262;10.498;2023-02-17T05:38:48;22.17;;;15.82;;
30970;SDS011;17651;52.262;10.498;2023-02-17T05:41:01;26.05;;;15.95;;
30970;SDS011;17651;52.262;10.498;2023-02-17T05:43:12;25.73;;;16.42;;
30970;SDS011;17651;52.262;10.498;2023-02-17T05:45:23;30.00;;;17.05;;
30970;SDS011;17651;52.262;10.498;2023-02-17T05:47:34;27.73;;;18.08;;
30970;SDS011;17651;52.262;10.498;2023-02-17T05:49:46;26.40;;;16.77;;
30970;SDS011;17651;52.262;10.498;2023-02-17T05:51:57;26.33;;;15.57;;
30970;SDS011;17651;52.262;10.498;2023-02-17T05:54:08;24.15;;;16.63;;
30970;SDS011;17651;52.262;10.498;2023-02-17T05:56:19;22.00;;;15.70;;
30970;SDS011;17651;52.262;10.498;2023-02-17T05:58:30;24.42;;;16.23;;
30970;SDS011;17651;52.262;10.498;2023-02-17T06:00:42;22.05;;;15.57;;
30970;SDS011;17651;52.262;10.498;2023-02-17T06:02:55;19.80;;;14.52;;
30970;SDS011;17651;52.262;10.498;2023-02-17T06:05:06;20.67;;;13.35;;
30970;SDS011;17651;52.262;10.498;2023-02-17T06:07:17;23.00;;;15.57;;
30970;SDS011;17651;52.262;10.498;2023-02-17T06:09:29;21.65;;;15.10;;
30970;SDS011;17651;52.262;10.498;2023-02-17T06:11:40;23.33;;;15.50;;
30970;SDS011;17651;52.262;10.498;2023-02-17T06:13:51;22.23;;;14.40;;
30970;SDS011;17651;52.262;10.498;2023-02-17T06:16:02;25.85;;;15.63;;
30970;SDS011;17651;52.262;10.498;2023-02-17T06:18:14;19.50;;;14.45;;
30970;SDS011;17651;52.262;10.498;2023-02-17T06:20:25;24.98;;;15.13;;
30970;SDS011;17651;52.262;10.498;2023-02-17T06:22:36;20.42;;;13.88;;
30970;SDS011;17651;52.262;10.498;2023-02-17T06:24:47;21.55;;;14.85;;
30970;SDS011;17651;52.262;10.498;2023-02-17T06:26:59;22.40;;;14.10;;
30970;SDS011;17651;52.262;10.498;2023-02-17T06:29:11;21.10;;;14.70;;
30970;SDS011;17651;52.262;10.498;2023-02-17T06:31:22;20.70;;;13.27;;
30970;SDS011;17651;52.262;10.498;2023-02-17T06:33:33;21.35;;;13.98;;
30970;SDS011;17651;52.262;10.498;2023-02-17T06:35:48;22.50;;;14.27;;
30970;SDS011;17651;52.262;10.498;2023-02-17T06:37:59;21.50;;;13.60;;
30970;SDS011;17651;52.262;10.498;2023-02-17T06:40:11;19.63;;;13.10;;
30970;SDS011;17651;52.262;10.498;2023-02-17T06:42:22;18.45;;;13.45;;
30970;SDS011;17651;52.262;10.498;2023-02-17T06:44:34;21.88;;;14.20;;
30970;SDS011;17651;52.262;10.498;2023-02-17T06:46:45;18.98;;;12.88;;
30970;SDS011;17651;52.262;10.498;2023-02-17T06:48:56;21.90;;;14.00;;
30970;SDS011;17651;52.262;10.498;2023-02-17T06:51:09;18.50;;;12.98;;
30970;SDS011;17651;52.262;10.498;2023-02-17T06:53:20;20.30;;;12.80;;
30970;SDS011;17651;52.262;10.498;2023-02-17T06:55:31;21.52;;;14.05;;
30970;SDS011;17651;52.262;10.498;2023-02-17T06:57:44;18.85;;;13.43;;
30970;SDS011;17651;52.262;10.498;2023-02-17T06:59:55;21.45;;;13.57;;
30970;SDS011;17651;52.262;10.498;2023-02-17T07:02:08;18.55;;;12.85;;
30970;SDS011;17651;52.262;10.498;2023-02-17T07:04:21;22.42;;;13.65;;
30970;SDS011;17651;52.262;10.498;2023-02-17T07:06:32;20.13;;;13.13;;
30970;SDS011;17651;52.262;10.498;2023-02-17T07:08:43;18.98;;;12.95;;
30970;SDS011;17651;52.262;10.498;2023-02-17T07:10:54;20.58;;;13.32;;
30970;SDS011;17651;52.262;10.498;2023-02-17T07:13:06;19.10;;;13.35;;
30970;SDS011;17651;52.262;10.498;2023-02-17T07:15:17;20.02;;;13.90;;
30970;SDS011;17651;52.262;10.498;2023-02-17T07:17:28;18.70;;;13.73;;
30970;SDS011;17651;52.262;10.498;2023-02-17T07:19:39;18.40;;;12.25;;
30970;SDS011;17651;52.262;10.498;2023-02-17T07:21:50;19.05;;;12.43;;
30970;SDS011;17651;52.262;10.498;2023-02-17T07:24:02;18.75;;;13.05;;
30970;SDS011;17651;52.262;10.498;2023-02-17T07:26:13;26.05;;;16.60;;
30970;SDS011;17651;52.262;10.498;2023-02-17T07:28:24;22.05;;;14.80;;
30970;SDS011;17651;52.262;10.498;2023-02-17T07:30:38;17.13;;;12.13;;
30970;SDS011;17651;52.262;10.498;2023-02-17T07:32:50;19.27;;;12.68;;
30970;SDS011;17651;52.262;10.498;2023-02-17T07:35:01;17.77;;;11.90;;
30970;SDS011;17651;52.262;10.498;2023-02-17T07:37:12;22.25;;;13.52;;
30970;SDS011;17651;52.262;10.498;2023-02-17T07:39:23;17.60;;;12.60;;
30970;SDS011;17651;52.262;10.498;2023-02-17T07:41:34;20.50;;;13.75;;
30970;SDS011;17651;52.262;10.498;2023-02-17T07:43:52;21.58;;;14.45;;
30970;SDS011;17651;52.262;10.498;2023-02-17T07:46:05;20.33;;;12.85;;
30970;SDS011;17651;52.262;10.498;2023-02-17T07:48:17;22.45;;;14.52;;
30970;SDS011;17651;52.262;10.498;2023-02-17T07:50:28;19.00;;;13.63;;
30970;SDS011;17651;52.262;10.498;2023-02-17T07:52:39;20.98;;;13.57;;
30970;SDS011;17651;52.262;10.498;2023-02-17T07:54:50;22.20;;;14.95;;
30970;SDS011;17651;52.262;10.498;2023-02-17T07:57:02;23.67;;;14.80;;
30970;SDS011;17651;52.262;10.498;2023-02-17T07:59:13;19.23;;;13.93;;
30970;SDS011;17651;52.262;10.498;2023-02-17T08:01:24;21.38;;;13.93;;
30970;SDS011;17651;52.262;10.498;2023-02-17T08:03:36;20.33;;;13.43;;
30970;SDS011;17651;52.262;10.498;2023-02-17T08:05:47;19.10;;;12.65;;
30970;SDS011;17651;52.262;10.498;2023-02-17T08:08:00;16.20;;;12.05;;
30970;SDS011;17651;52.262;10.498;2023-02-17T08:10:30;15.80;;;11.48;;
30970;SDS011;17651;52.262;10.498;2023-02-17T08:13:00;17.17;;;11.95;;
30970;SDS011;17651;52.262;10.498;2023-02-17T08:15:31;17.42;;;11.85;;
30970;SDS011;17651;52.262;10.498;2023-02-17T08:17:43;17.60;;;13.27;;
30970;SDS011;17651;52.262;10.498;2023-02-17T08:19:54;17.58;;;12.27;;
30970;SDS011;17651;52.262;10.498;2023-02-17T08:22:05;17.00;;;11.07;;
30970;SDS011;17651;52.262;10.498;2023-02-17T08:24:16;16.45;;;11.07;;
30970;SDS011;17651;52.262;10.498;2023-02-17T08:26:31;16.35;;;11.43;;
30970;SDS011;17651;52.262;10.498;2023-02-17T08:28:42;16.88;;;10.07;;
30970;SDS011;17651;52.262;10.498;2023-02-17T08:30:54;15.77;;;10.50;;
30970;SDS011;17651;52.262;10.498;2023-02-17T08:33:05;14.88;;;10.55;;
30970;SDS011;17651;52.262;10.498;2023-02-17T08:35:16;15.00;;;10.38;;
30970;SDS011;17651;52.262;10.498;2023-02-17T08:37:35;13.93;;;10.23;;
30970;SDS011;17651;52.262;10.498;2023-02-17T08:39:46;15.13;;;10.52;;
30970;SDS011;17651;52.262;10.498;2023-02-17T08:41:57;13.52;;;9.68;;
30970;SDS011;17651;52.262;10.498;2023-02-17T08:44:10;14.02;;;8.15;;
30970;SDS011;17651;52.262;10.498;2023-02-17T08:46:22;13.88;;;9.90;;
30970;SDS011;17651;52.262;10.498;2023-02-17T08:48:33;12.82;;;9.77;;
30970;SDS011;17651;52.262;10.498;2023-02-17T08:50:45;13.02;;;10.40;;
30970;SDS011;17651;52.262;10.498;2023-02-17T08:52:57;12.27;;;9.20;;
30970;SDS011;17651;52.262;10.498;2023-02-17T08:55:08;12.35;;;9.32;;
30970;SDS011;17651;52.262;10.498;2023-02-17T08:57:19;12.95;;;9.30;;
30970;SDS011;17651;52.262;10.498;2023-02-17T08:59:31;11.85;;;9.43;;
30970;SDS011;17651;52.262;10.498;2023-02-17T09:01:42;13.48;;;9.98;;
30970;SDS011;17651;52.262;10.498;2023-02-17T09:03:55;12.38;;;9.18;;
30970;SDS011;17651;52.262;10.498;2023-02-17T09:06:06;12.73;;;8.75;;
30970;SDS011;17651;52.262;10.498;2023-02-17T09:08:17;12.13;;;9.02;;
30970;SDS011;17651;52.262;10.498;2023-02-17T09:10:28;12.70;;;9.45;;
30970;SDS011;17651;52.262;10.498;2023-02-17T09:12:40;13.73;;;9.27;;
30970;SDS011;17651;52.262;10.498;2023-02-17T09:14:51;13.27;;;9.25;;
30970;SDS011;17651;52.262;10.498;2023-02-17T09:17:02;13.55;;;9.48;;
30970;SDS011;17651;52.262;10.498;2023-02-17T09:19:14;14.30;;;9.23;;
30970;SDS011;17651;52.262;10.498;2023-02-17T09:21:25;16.60;;;10.35;;
30970;SDS011;17651;52.262;10.498;2023-02-17T09:23:36;14.07;;;9.45;;
30970;SDS011;17651;52.262;10.498;2023-02-17T09:25:47;13.77;;;9.60;;
30970;SDS011;17651;52.262;10.498;2023-02-17T09:27:58;13.15;;;10.10;;
30970;SDS011;17651;52.262;10.498;2023-02-17T09:30:10;11.88;;;9.43;;
30970;SDS011;17651;52.262;10.498;2023-02-17T09:32:21;12.07;;;9.48;;
30970;SDS011;17651;52.262;10.498;2023-02-17T09:34:36;12.15;;;9.88;;
30970;SDS011;17651;52.262;10.498;2023-02-17T09:36:47;13.50;;;10.23;;
30970;SDS011;17651;52.262;10.498;2023-02-17T09:38:59;13.05;;;9.50;;
30970;SDS011;17651;52.262;10.498;2023-02-17T09:41:18;11.75;;;9.98;;
30970;SDS011;17651;52.262;10.498;2023-02-17T09:43:31;14.27;;;9.50;;
30970;SDS011;17651;52.262;10.498;2023-02-17T09:45:51;12.35;;;9.85;;
30970;SDS011;17651;52.262;10.498;2023-02-17T09:48:05;12.82;;;9.60;;
30970;SDS011;17651;52.262;10.498;2023-02-17T09:50:19;13.13;;;9.48;;
30970;SDS011;17651;52.262;10.498;2023-02-17T09:52:33;11.32;;;9.20;;
30970;SDS011;17651;52.262;10.498;2023-02-17T09:57:11;11.80;;;8.43;;
30970;SDS011;17651;52.262;10.498;2023-02-17T09:59:31;13.25;;;8.77;;
30970;SDS011;17651;52.262;10.498;2023-02-17T10:01:45;11.60;;;9.18;;
30970;SDS011;17651;52.262;10.498;2023-02-17T10:06:12;13.68;;;9.07;;
30970;SDS011;17651;52.262;10.498;2023-02-17T10:08:30;10.38;;;8.77;;
30970;SDS011;17651;52.262;10.498;2023-02-17T10:10:49;10.75;;;8.25;;
30970;SDS011;17651;52.262;10.498;2023-02-17T10:13:02;12.32;;;8.32;;
30970;SDS011;17651;52.262;10.498;2023-02-17T10:15:20;11.52;;;8.60;;
30970;SDS011;17651;52.262;10.498;2023-02-17T10:17:34;13.00;;;9.35;;
30970;SDS011;17651;52.262;10.498;2023-02-17T10:19:51;11.88;;;8.75;;
30970;SDS011;17651;52.262;10.498;2023-02-17T10:22:11;12.43;;;8.77;;
30970;SDS011;17651;52.262;10.498;2023-02-17T10:24:23;10.00;;;8.32;;
30970;SDS011;17651;52.262;10.498;2023-02-17T10:29:06;9.02;;;7.93;;
30970;SDS011;17651;52.262;10.498;2023-02-17T10:33:55;10.15;;;8.07;;
30970;SDS011;17651;52.262;10.498;2023-02-17T10:40:40;12.70;;;8.48;;
30970;SDS011;17651;52.262;10.498;2023-02-17T10:42:54;11.07;;;8.05;;
30970;SDS011;17651;52.262;10.498;2023-02-17T10:45:28;12.48;;;8.32;;
30970;SDS011;17651;52.262;10.498;2023-02-17T10:47:40;10.45;;;7.50;;
30970;SDS011;17651;52.262;10.498;2023-02-17T10:49:52;9.07;;;7.07;;
30970;SDS011;17651;52.262;10.498;2023-02-17T10:54:28;9.25;;;8.10;;
30970;SDS011;17651;52.262;10.498;2023-02-17T10:56:43;10.35;;;8.80;;
30970;SDS011;17651;52.262;10.498;2023-02-17T10:59:06;12.98;;;8.82;;
30970;SDS011;17651;52.262;10.498;2023-02-17T11:01:18;10.35;;;8.20;;
30970;SDS011;17651;52.262;10.498;2023-02-17T11:03:32;12.13;;;8.73;;
30970;SDS011;17651;52.262;10.498;2023-02-17T11:06:19;10.65;;;8.20;;
30970;SDS011;17651;52.262;10.498;2023-02-17T11:08:39;15.55;;;9.32;;
30970;SDS011;17651;52.262;10.498;2023-02-17T11:10:58;12.60;;;8.93;;
30970;SDS011;17651;52.262;10.498;2023-02-17T11:17:51;13.70;;;9.20;;
30970;SDS011;17651;52.262;10.498;2023-02-17T11:20:05;10.73;;;8.65;;
30970;SDS011;17651;52.262;10.498;2023-02-17T11:22:31;12.50;;;8.07;;
30970;SDS011;17651;52.262;10.498;2023-02-17T11:24:44;9.75;;;8.00;;
30970;SDS011;17651;52.262;10.498;2023-02-17T11:27:08;12.38;;;8.80;;
30970;SDS011;17651;52.262;10.498;2023-02-17T11:29:20;10.88;;;8.40;;
30970;SDS011;17651;52.262;10.498;2023-02-17T11:31:31;11.15;;;9.13;;
30970;SDS011;17651;52.262;10.498;2023-02-17T11:33:42;12.25;;;8.95;;
30970;SDS011;17651;52.262;10.498;2023-02-17T11:35:54;12.07;;;8.43;;
30970;SDS011;17651;52.262;10.498;2023-02-17T11:40:26;11.85;;;8.25;;
30970;SDS011;17651;52.262;10.498;2023-02-17T11:42:38;10.02;;;7.35;;
30970;SDS011;17651;52.262;10.498;2023-02-17T11:44:50;12.05;;;8.88;;
30970;SDS011;17651;52.262;10.498;2023-02-17T11:47:14;10.98;;;7.57;;
30970;SDS011;17651;52.262;10.498;2023-02-17T11:56:33;9.15;;;7.30;;
30970;SDS011;17651;52.262;10.498;2023-02-17T11:58:59;12.73;;;7.65;;
30970;SDS011;17651;52.262;10.498;2023-02-17T12:16:23;9.82;;;7.40;;
30970;SDS011;17651;52.262;10.498;2023-02-17T12:18:33;11.45;;;8.07;;
30970;SDS011;17651;52.262;10.498;2023-02-17T12:25:32;10.68;;;8.55;;
30970;SDS011;17651;52.262;10.498;2023-02-17T12:34:29;9.43;;;7.40;;
30970;SDS011;17651;52.262;10.498;2023-02-17T12:36:41;13.45;;;7.70;;
30970;SDS011;17651;52.262;10.498;2023-02-17T12:38:53;8.85;;;6.82;;
30970;SDS011;17651;52.262;10.498;2023-02-17T12:41:07;8.95;;;6.82;;
30970;SDS011;17651;52.262;10.498;2023-02-17T12:43:24;8.77;;;7.43;;
30970;SDS011;17651;52.262;10.498;2023-02-17T12:45:40;11.25;;;7.53;;
30970;SDS011;17651;52.262;10.498;2023-02-17T12:47:59;10.18;;;7.32;;
30970;SDS011;17651;52.262;10.498;2023-02-17T12:50:20;10.32;;;7.95;;
30970;SDS011;17651;52.262;10.498;2023-02-17T12:52:36;10.95;;;8.60;;
30970;SDS011;17651;52.262;10.498;2023-02-17T12:54:53;9.95;;;6.68;;
30970;SDS011;17651;52.262;10.498;2023-02-17T12:57:12;12.32;;;8.25;;
30970;SDS011;17651;52.262;10.498;2023-02-17T13:01:35;10.30;;;8.00;;
30970;SDS011;17651;52.262;10.498;2023-02-17T13:03:47;11.75;;;8.18;;
30970;SDS011;17651;52.262;10.498;2023-02-17T13:06:03;9.82;;;8.32;;
30970;SDS011;17651;52.262;10.498;2023-02-17T13:08:24;10.32;;;7.85;;
30970;SDS011;17651;52.262;10.498;2023-02-17T13:10:39;9.48;;;7.63;;
30970;SDS011;17651;52.262;10.498;2023-02-17T13:13:51;11.57;;;7.80;;
30970;SDS011;17651;52.262;10.498;2023-02-17T13:17:55;13.32;;;9.88;;
30970;SDS011;17651;52.262;10.498;2023-02-17T13:22:21;13.02;;;10.40;;
30970;SDS011;17651;52.262;10.498;2023-02-17T13:26:44;11.77;;;8.27;;
30970;SDS011;17651;52.262;10.498;2023-02-17T13:31:25;12.88;;;9.80;;
30970;SDS011;17651;52.262;10.498;2023-02-17T13:33:41;13.43;;;10.23;;
30970;SDS011;17651;52.262;10.498;2023-02-17T13:35:52;14.38;;;10.70;;
30970;SDS011;17651;52.262;10.498;2023-02-17T13:38:03;11.90;;;10.63;;
30970;SDS011;17651;52.262;10.498;2023-02-17T13:44:44;14.57;;;12.27;;
30970;SDS011;17651;52.262;10.498;2023-02-17T13:46:59;15.18;;;11.90;;
30970;SDS011;17651;52.262;10.498;2023-02-17T13:49:18;16.00;;;12.95;;
30970;SDS011;17651;52.262;10.498;2023-02-17T13:51:31;14.43;;;12.52;;
30970;SDS011;17651;52.262;10.498;2023-02-17T13:53:42;19.08;;;15.10;;
30970;SDS011;17651;52.262;10.498;2023-02-17T13:56:06;18.33;;;14.70;;
30970;SDS011;17651;52.262;10.498;2023-02-17T13:58:22;18.33;;;15.07;;
30970;SDS011;17651;52.262;10.498;2023-02-17T14:00:33;18.65;;;15.05;;
30970;SDS011;17651;52.262;10.498;2023-02-17T14:02:45;18.17;;;14.73;;
30970;SDS011;17651;52.262;10.498;2023-02-17T14:04:57;19.67;;;15.23;;
30970;SDS011;17651;52.262;10.498;2023-02-17T14:07:09;18.88;;;16.15;;
30970;SDS011;17651;52.262;10.498;2023-02-17T14:09:24;21.17;;;15.85;;
30970;SDS011;17651;52.262;10.498;2023-02-17T14:11:36;19.13;;;15.35;;
30970;SDS011;17651;52.262;10.498;2023-02-17T14:13:48;17.98;;;14.80;;
30970;SDS011;17651;52.262;10.498;2023-02-17T14:15:59;20.17;;;14.93;;
30970;SDS011;17651;52.262;10.498;2023-02-17T14:18:14;18.08;;;13.93;;
30970;SDS011;17651;52.262;10.498;2023-02-17T14:20:27;17.98;;;12.95;;
30970;SDS011;17651;52.262;10.498;2023-02-17T14:22:39;16.92;;;13.00;;
30970;SDS011;17651;52.262;10.498;2023-02-17T14:25:01;16.70;;;13.48;;
30970;SDS011;17651;52.262;10.498;2023-02-17T14:27:13;14.68;;;11.85;;
30970;SDS011;17651;52.262;10.498;2023-02-17T14:29:24;13.35;;;11.75;;
30970;SDS011;17651;52.262;10.498;2023-02-17T14:31:37;14.60;;;11.05;;